sensor_id;sensor_type;location;lat;lon;timestamp;P1;durP1;ratioP1;P2;durP2;ratioP2
78372;SDS011;67656;52.074;4.758;2023-12-14T00:04:32;19.13;;;6.33;;
78372;SDS011;67656;52.074;4.758;2023-12-14T00:09:32;15.50;;;5.80;;
78372;SDS011;67656;52.074;4.758;2023-12-14T00:14:33;14.77;;;5.40;;
78372;SDS011;67656;52.074;4.758;2023-12-14T00:19:33;15.37;;;5.43;;
78372;SDS011;67656;52.074;4.758;2023-12-14T00:24:34;15.20;;;5.30;;
78372;SDS011;67656;52.074;4.758;2023-12-14T00:29:34;15.23;;;5.33;;
78372;SDS011;67656;52.074;4.758;2023-12-14T00:34:35;16.43;;;5.03;;
78372;SDS011;67656;52.074;4.758;2023-12-14T00:39:35;16.10;;;5.67;;
78372;SDS011;67656;52.074;4.758;2023-12-14T00:44:36;15.63;;;5.50;;
78372;SDS011;67656;52.074;4.758;2023-12-14T00:49:37;13.43;;;5.63;;
78372;SDS011;67656;52.074;4.758;2023-12-14T00:54:37;11.50;;;4.53;;
78372;SDS011;67656;52.074;4.758;2023-12-14T00:59:38;15.23;;;4.63;;
78372;SDS011;67656;52.074;4.758;2023-12-14T01:04:38;12.97;;;5.23;;
78372;SDS011;67656;52.074;4.758;2023-12-14T01:09:39;13.67;;;5.03;;
78372;SDS011;67656;52.074;4.758;2023-12-14T01:14:40;15.20;;;5.40;;
78372;SDS011;67656;52.074;4.758;2023-12-14T01:19:43;13.97;;;5.17;;
78372;SDS011;67656;52.074;4.758;2023-12-14T01:24:45;14.50;;;5.37;;
78372;SDS011;67656;52.074;4.758;2023-12-14T01:29:46;13.03;;;4.60;;
78372;SDS011;67656;52.074;4.758;2023-12-14T01:34:47;14.83;;;4.90;;
78372;SDS011;67656;52.074;4.758;2023-12-14T01:39:47;13.20;;;4.97;;
78372;SDS011;67656;52.074;4.758;2023-12-14T01:44:48;14.70;;;5.50;;
78372;SDS011;67656;52.074;4.758;2023-12-14T01:49:48;17.07;;;5.37;;
78372;SDS011;67656;52.074;4.758;2023-12-14T01:54:49;16.97;;;5.93;;
78372;SDS011;67656;52.074;4.758;2023-12-14T01:59:50;18.53;;;6.10;;
78372;SDS011;67656;52.074;4.758;2023-12-14T02:04:50;21.87;;;6.03;;
78372;SDS011;67656;52.074;4.758;2023-12-14T02:09:51;20.10;;;6.07;;
78372;SDS011;67656;52.074;4.758;2023-12-14T02:14:51;17.83;;;5.83;;
78372;SDS011;67656;52.074;4.758;2023-12-14T02:19:52;17.87;;;6.80;;
78372;SDS011;67656;52.074;4.758;2023-12-14T02:24:52;17.30;;;5.77;;
78372;SDS011;67656;52.074;4.758;2023-12-14T02:29:53;18.73;;;5.93;;
78372;SDS011;67656;52.074;4.758;2023-12-14T02:34:53;21.50;;;6.30;;
78372;SDS011;67656;52.074;4.758;2023-12-14T02:39:57;17.70;;;5.40;;
78372;SDS011;67656;52.074;4.758;2023-12-14T02:44:58;17.38;;;5.97;;
78372;SDS011;67656;52.074;4.758;2023-12-14T02:49:58;17.60;;;5.60;;
78372;SDS011;67656;52.074;4.758;2023-12-14T02:54:59;17.57;;;5.40;;
78372;SDS011;67656;52.074;4.758;2023-12-14T03:00:00;16.23;;;5.50;;
78372;SDS011;67656;52.074;4.758;2023-12-14T03:05:01;18.40;;;5.80;;
78372;SDS011;67656;52.074;4.758;2023-12-14T03:10:02;16.77;;;6.20;;
78372;SDS011;67656;52.074;4.758;2023-12-14T03:15:03;17.33;;;6.07;;
78372;SDS011;67656;52.074;4.758;2023-12-14T03:20:04;17.57;;;5.67;;
78372;SDS011;67656;52.074;4.758;2023-12-14T03:25:05;19.57;;;6.03;;
78372;SDS011;67656;52.074;4.758;2023-12-14T03:30:07;20.07;;;6.10;;
78372;SDS011;67656;52.074;4.758;2023-12-14T03:35:07;16.13;;;5.60;;
78372;SDS011;67656;52.074;4.758;2023-12-14T03:40:08;14.47;;;5.60;;
78372;SDS011;67656;52.074;4.758;2023-12-14T03:45:09;18.27;;;5.80;;
78372;SDS011;67656;52.074;4.758;2023-12-14T03:50:10;14.53;;;5.10;;
78372;SDS011;67656;52.074;4.758;2023-12-14T03:55:11;15.67;;;4.97;;
78372;SDS011;67656;52.074;4.758;2023-12-14T04:00:12;17.23;;;4.67;;
78372;SDS011;67656;52.074;4.758;2023-12-14T04:05:13;10.10;;;4.07;;
78372;SDS011;67656;52.074;4.758;2023-12-14T04:10:14;12.93;;;4.27;;
78372;SDS011;67656;52.074;4.758;2023-12-14T04:15:15;11.03;;;4.00;;
78372;SDS011;67656;52.074;4.758;2023-12-14T04:20:15;10.60;;;3.60;;
78372;SDS011;67656;52.074;4.758;2023-12-14T04:25:18;11.30;;;4.70;;
78372;SDS011;67656;52.074;4.758;2023-12-14T04:30:19;8.20;;;3.17;;
78372;SDS011;67656;52.074;4.758;2023-12-14T04:35:19;14.03;;;3.23;;
78372;SDS011;67656;52.074;4.758;2023-12-14T04:40:20;11.50;;;3.00;;
78372;SDS011;67656;52.074;4.758;2023-12-14T04:45:23;8.97;;;2.97;;
78372;SDS011;67656;52.074;4.758;2023-12-14T04:50:23;8.50;;;2.77;;
78372;SDS011;67656;52.074;4.758;2023-12-14T04:55:26;8.57;;;3.13;;
78372;SDS011;67656;52.074;4.758;2023-12-14T05:00:27;8.37;;;2.70;;
78372;SDS011;67656;52.074;4.758;2023-12-14T05:05:28;7.27;;;2.70;;
78372;SDS011;67656;52.074;4.758;2023-12-14T05:10:28;6.03;;;2.60;;
78372;SDS011;67656;52.074;4.758;2023-12-14T05:15:28;5.73;;;2.40;;
78372;SDS011;67656;52.074;4.758;2023-12-14T05:20:29;8.50;;;3.00;;
78372;SDS011;67656;52.074;4.758;2023-12-14T05:25:29;6.90;;;2.70;;
78372;SDS011;67656;52.074;4.758;2023-12-14T05:30:30;6.40;;;2.90;;
78372;SDS011;67656;52.074;4.758;2023-12-14T05:35:30;8.73;;;3.00;;
78372;SDS011;67656;52.074;4.758;2023-12-14T05:40:31;9.07;;;3.47;;
78372;SDS011;67656;52.074;4.758;2023-12-14T05:45:31;7.43;;;3.13;;
78372;SDS011;67656;52.074;4.758;2023-12-14T05:50:32;8.63;;;3.00;;
78372;SDS011;67656;52.074;4.758;2023-12-14T05:55:32;6.57;;;2.70;;
78372;SDS011;67656;52.074;4.758;2023-12-14T06:00:33;7.40;;;3.00;;
78372;SDS011;67656;52.074;4.758;2023-12-14T06:05:34;6.67;;;2.70;;
78372;SDS011;67656;52.074;4.758;2023-12-14T06:10:34;9.80;;;3.47;;
78372;SDS011;67656;52.074;4.758;2023-12-14T06:15:35;7.80;;;3.43;;
78372;SDS011;67656;52.074;4.758;2023-12-14T06:20:35;8.17;;;3.07;;
78372;SDS011;67656;52.074;4.758;2023-12-14T06:25:38;9.03;;;3.77;;
78372;SDS011;67656;52.074;4.758;2023-12-14T06:30:38;10.10;;;3.93;;
78372;SDS011;67656;52.074;4.758;2023-12-14T06:35:39;10.97;;;3.47;;
78372;SDS011;67656;52.074;4.758;2023-12-14T06:40:39;8.63;;;3.13;;
78372;SDS011;67656;52.074;4.758;2023-12-14T06:45:40;8.50;;;3.57;;
78372;SDS011;67656;52.074;4.758;2023-12-14T06:50:40;9.17;;;3.63;;
78372;SDS011;67656;52.074;4.758;2023-12-14T06:55:41;7.70;;;3.13;;
78372;SDS011;67656;52.074;4.758;2023-12-14T07:00:42;9.27;;;3.40;;
78372;SDS011;67656;52.074;4.758;2023-12-14T07:05:42;8.23;;;3.50;;
78372;SDS011;67656;52.074;4.758;2023-12-14T07:10:42;9.43;;;3.60;;
78372;SDS011;67656;52.074;4.758;2023-12-14T07:15:46;8.70;;;3.50;;
78372;SDS011;67656;52.074;4.758;2023-12-14T07:20:46;9.50;;;3.30;;
78372;SDS011;67656;52.074;4.758;2023-12-14T07:25:47;9.30;;;3.90;;
78372;SDS011;67656;52.074;4.758;2023-12-14T07:30:47;8.77;;;3.50;;
78372;SDS011;67656;52.074;4.758;2023-12-14T07:35:48;10.03;;;4.23;;
78372;SDS011;67656;52.074;4.758;2023-12-14T07:40:48;11.77;;;4.20;;
78372;SDS011;67656;52.074;4.758;2023-12-14T07:45:49;11.67;;;4.30;;
78372;SDS011;67656;52.074;4.758;2023-12-14T07:50:49;10.57;;;3.67;;
78372;SDS011;67656;52.074;4.758;2023-12-14T07:55:50;8.53;;;3.83;;
78372;SDS011;67656;52.074;4.758;2023-12-14T08:00:50;9.23;;;3.67;;
78372;SDS011;67656;52.074;4.758;2023-12-14T08:05:51;8.10;;;3.70;;
78372;SDS011;67656;52.074;4.758;2023-12-14T08:10:51;10.57;;;3.47;;
78372;SDS011;67656;52.074;4.758;2023-12-14T08:15:51;11.00;;;3.57;;
78372;SDS011;67656;52.074;4.758;2023-12-14T08:20:52;11.47;;;3.67;;
78372;SDS011;67656;52.074;4.758;2023-12-14T08:25:56;16.13;;;4.90;;
78372;SDS011;67656;52.074;4.758;2023-12-14T08:30:56;16.95;;;4.93;;
78372;SDS011;67656;52.074;4.758;2023-12-14T08:35:57;11.50;;;4.53;;
78372;SDS011;67656;52.074;4.758;2023-12-14T08:40:57;9.47;;;4.10;;
78372;SDS011;67656;52.074;4.758;2023-12-14T08:45:58;13.20;;;3.90;;
78372;SDS011;67656;52.074;4.758;2023-12-14T08:50:58;10.60;;;3.90;;
78372;SDS011;67656;52.074;4.758;2023-12-14T08:55:59;10.53;;;4.10;;
78372;SDS011;67656;52.074;4.758;2023-12-14T09:00:59;10.27;;;3.97;;
78372;SDS011;67656;52.074;4.758;2023-12-14T09:05:59;8.50;;;3.30;;
78372;SDS011;67656;52.074;4.758;2023-12-14T09:11:00;7.20;;;3.30;;
78372;SDS011;67656;52.074;4.758;2023-12-14T09:16:00;8.27;;;3.70;;
78372;SDS011;67656;52.074;4.758;2023-12-14T09:21:01;10.23;;;3.40;;
78372;SDS011;67656;52.074;4.758;2023-12-14T09:26:01;8.50;;;3.40;;
78372;SDS011;67656;52.074;4.758;2023-12-14T09:31:03;8.35;;;3.08;;
78372;SDS011;67656;52.074;4.758;2023-12-14T09:36:04;8.63;;;3.50;;
78372;SDS011;67656;52.074;4.758;2023-12-14T09:41:04;7.10;;;3.43;;
78372;SDS011;67656;52.074;4.758;2023-12-14T09:46:05;8.43;;;3.60;;
78372;SDS011;67656;52.074;4.758;2023-12-14T09:51:07;7.70;;;3.27;;
78372;SDS011;67656;52.074;4.758;2023-12-14T09:56:08;6.80;;;2.97;;
78372;SDS011;67656;52.074;4.758;2023-12-14T10:01:24;6.70;;;2.97;;
78372;SDS011;67656;52.074;4.758;2023-12-14T10:06:26;8.33;;;3.20;;
78372;SDS011;67656;52.074;4.758;2023-12-14T10:11:26;8.53;;;3.70;;
78372;SDS011;67656;52.074;4.758;2023-12-14T10:16:30;8.00;;;3.20;;
78372;SDS011;67656;52.074;4.758;2023-12-14T10:26:32;5.87;;;2.90;;
78372;SDS011;67656;52.074;4.758;2023-12-14T10:31:32;11.07;;;3.80;;
78372;SDS011;67656;52.074;4.758;2023-12-14T10:36:34;9.50;;;3.63;;
78372;SDS011;67656;52.074;4.758;2023-12-14T10:41:35;9.60;;;3.77;;
78372;SDS011;67656;52.074;4.758;2023-12-14T10:46:37;10.20;;;3.50;;
78372;SDS011;67656;52.074;4.758;2023-12-14T10:51:41;9.57;;;3.33;;
78372;SDS011;67656;52.074;4.758;2023-12-14T10:56:42;8.00;;;3.65;;
78372;SDS011;67656;52.074;4.758;2023-12-14T11:01:43;9.25;;;3.33;;
78372;SDS011;67656;52.074;4.758;2023-12-14T11:06:43;10.68;;;3.28;;
78372;SDS011;67656;52.074;4.758;2023-12-14T11:16:56;9.55;;;3.67;;
78372;SDS011;67656;52.074;4.758;2023-12-14T11:27:12;7.17;;;3.10;;
78372;SDS011;67656;52.074;4.758;2023-12-14T11:32:12;9.48;;;3.85;;
78372;SDS011;67656;52.074;4.758;2023-12-14T11:37:13;7.78;;;2.95;;
78372;SDS011;67656;52.074;4.758;2023-12-14T11:42:14;7.35;;;2.90;;
78372;SDS011;67656;52.074;4.758;2023-12-14T11:47:18;7.50;;;3.25;;
78372;SDS011;67656;52.074;4.758;2023-12-14T11:52:18;8.35;;;3.25;;
78372;SDS011;67656;52.074;4.758;2023-12-14T11:57:19;7.35;;;2.90;;
78372;SDS011;67656;52.074;4.758;2023-12-14T12:02:23;8.85;;;3.20;;
78372;SDS011;67656;52.074;4.758;2023-12-14T12:07:23;6.55;;;2.90;;
78372;SDS011;67656;52.074;4.758;2023-12-14T12:12:24;8.73;;;3.75;;
78372;SDS011;67656;52.074;4.758;2023-12-14T12:17:25;6.18;;;2.92;;
78372;SDS011;67656;52.074;4.758;2023-12-14T12:22:25;9.57;;;3.28;;
78372;SDS011;67656;52.074;4.758;2023-12-14T12:27:25;10.30;;;3.70;;
78372;SDS011;67656;52.074;4.758;2023-12-14T12:32:26;7.10;;;3.13;;
78372;SDS011;67656;52.074;4.758;2023-12-14T12:37:26;11.43;;;3.08;;
78372;SDS011;67656;52.074;4.758;2023-12-14T12:42:27;10.48;;;3.33;;
78372;SDS011;67656;52.074;4.758;2023-12-14T12:47:27;9.57;;;3.25;;
78372;SDS011;67656;52.074;4.758;2023-12-14T12:52:28;9.23;;;3.50;;
78372;SDS011;67656;52.074;4.758;2023-12-14T12:57:28;7.10;;;3.25;;
78372;SDS011;67656;52.074;4.758;2023-12-14T13:02:29;8.30;;;3.50;;
78372;SDS011;67656;52.074;4.758;2023-12-14T13:07:29;7.63;;;3.30;;
78372;SDS011;67656;52.074;4.758;2023-12-14T13:12:30;10.50;;;4.17;;
78372;SDS011;67656;52.074;4.758;2023-12-14T13:17:30;9.37;;;3.53;;
78372;SDS011;67656;52.074;4.758;2023-12-14T13:22:30;11.27;;;3.88;;
78372;SDS011;67656;52.074;4.758;2023-12-14T13:27:31;11.27;;;3.67;;
78372;SDS011;67656;52.074;4.758;2023-12-14T13:32:31;15.43;;;4.97;;
78372;SDS011;67656;52.074;4.758;2023-12-14T13:37:32;10.52;;;4.22;;
78372;SDS011;67656;52.074;4.758;2023-12-14T13:42:32;13.53;;;4.43;;
78372;SDS011;67656;52.074;4.758;2023-12-14T13:47:32;12.13;;;4.47;;
78372;SDS011;67656;52.074;4.758;2023-12-14T13:52:33;14.43;;;4.33;;
78372;SDS011;67656;52.074;4.758;2023-12-14T13:57:33;10.43;;;4.23;;
78372;SDS011;67656;52.074;4.758;2023-12-14T14:02:34;14.67;;;4.87;;
78372;SDS011;67656;52.074;4.758;2023-12-14T14:07:34;9.33;;;3.80;;
78372;SDS011;67656;52.074;4.758;2023-12-14T14:12:35;15.10;;;4.97;;
78372;SDS011;67656;52.074;4.758;2023-12-14T14:17:35;14.10;;;4.53;;
78372;SDS011;67656;52.074;4.758;2023-12-14T14:22:36;12.90;;;4.67;;
78372;SDS011;67656;52.074;4.758;2023-12-14T14:27:36;13.73;;;4.47;;
78372;SDS011;67656;52.074;4.758;2023-12-14T14:32:37;10.90;;;4.80;;
78372;SDS011;67656;52.074;4.758;2023-12-14T14:37:37;16.27;;;4.55;;
78372;SDS011;67656;52.074;4.758;2023-12-14T14:42:38;11.17;;;4.13;;
78372;SDS011;67656;52.074;4.758;2023-12-14T14:47:39;14.23;;;6.30;;
78372;SDS011;67656;52.074;4.758;2023-12-14T14:52:40;14.50;;;4.60;;
78372;SDS011;67656;52.074;4.758;2023-12-14T14:57:41;14.60;;;4.57;;
78372;SDS011;67656;52.074;4.758;2023-12-14T15:02:41;14.53;;;4.63;;
78372;SDS011;67656;52.074;4.758;2023-12-14T15:07:42;9.93;;;4.00;;
78372;SDS011;67656;52.074;4.758;2023-12-14T15:12:42;11.43;;;4.50;;
78372;SDS011;67656;52.074;4.758;2023-12-14T15:17:46;9.83;;;3.90;;
78372;SDS011;67656;52.074;4.758;2023-12-14T15:22:46;11.47;;;4.00;;
78372;SDS011;67656;52.074;4.758;2023-12-14T15:27:47;11.77;;;4.00;;
78372;SDS011;67656;52.074;4.758;2023-12-14T15:32:47;14.97;;;4.20;;
78372;SDS011;67656;52.074;4.758;2023-12-14T15:37:48;11.33;;;4.53;;
78372;SDS011;67656;52.074;4.758;2023-12-14T15:42:48;16.50;;;4.20;;
78372;SDS011;67656;52.074;4.758;2023-12-14T15:47:49;15.37;;;4.70;;
78372;SDS011;67656;52.074;4.758;2023-12-14T15:52:49;12.23;;;4.30;;
78372;SDS011;67656;52.074;4.758;2023-12-14T15:57:52;16.73;;;4.73;;
78372;SDS011;67656;52.074;4.758;2023-12-14T16:02:53;11.90;;;4.10;;
78372;SDS011;67656;52.074;4.758;2023-12-14T16:07:54;10.27;;;4.50;;
78372;SDS011;67656;52.074;4.758;2023-12-14T16:12:54;13.20;;;4.97;;
78372;SDS011;67656;52.074;4.758;2023-12-14T16:17:55;12.57;;;4.43;;
78372;SDS011;67656;52.074;4.758;2023-12-14T16:22:56;10.53;;;4.03;;
78372;SDS011;67656;52.074;4.758;2023-12-14T16:27:56;13.67;;;4.70;;
78372;SDS011;67656;52.074;4.758;2023-12-14T16:32:57;11.97;;;4.40;;
78372;SDS011;67656;52.074;4.758;2023-12-14T16:37:57;11.13;;;4.07;;
78372;SDS011;67656;52.074;4.758;2023-12-14T16:42:57;9.97;;;4.10;;
78372;SDS011;67656;52.074;4.758;2023-12-14T16:47:58;14.40;;;4.07;;
78372;SDS011;67656;52.074;4.758;2023-12-14T16:52:58;14.17;;;3.60;;
78372;SDS011;67656;52.074;4.758;2023-12-14T16:57:59;12.07;;;4.13;;
78372;SDS011;67656;52.074;4.758;2023-12-14T17:02:59;7.90;;;3.73;;
78372;SDS011;67656;52.074;4.758;2023-12-14T17:07:59;8.30;;;3.80;;
78372;SDS011;67656;52.074;4.758;2023-12-14T17:13:00;9.80;;;3.30;;
78372;SDS011;67656;52.074;4.758;2023-12-14T17:18:00;12.70;;;3.73;;
78372;SDS011;67656;52.074;4.758;2023-12-14T17:23:04;8.47;;;3.60;;
78372;SDS011;67656;52.074;4.758;2023-12-14T17:28:05;11.13;;;3.60;;
78372;SDS011;67656;52.074;4.758;2023-12-14T17:33:05;7.73;;;3.53;;
78372;SDS011;67656;52.074;4.758;2023-12-14T17:38:06;9.20;;;4.27;;
78372;SDS011;67656;52.074;4.758;2023-12-14T17:43:09;13.33;;;4.27;;
78372;SDS011;67656;52.074;4.758;2023-12-14T17:48:09;9.70;;;3.90;;
78372;SDS011;67656;52.074;4.758;2023-12-14T17:53:10;9.27;;;3.90;;
78372;SDS011;67656;52.074;4.758;2023-12-14T17:58:10;12.60;;;4.73;;
78372;SDS011;67656;52.074;4.758;2023-12-14T18:03:11;10.80;;;3.93;;
78372;SDS011;67656;52.074;4.758;2023-12-14T18:08:11;10.67;;;3.60;;
78372;SDS011;67656;52.074;4.758;2023-12-14T18:13:12;10.77;;;3.23;;
78372;SDS011;67656;52.074;4.758;2023-12-14T18:18:12;6.97;;;2.87;;
78372;SDS011;67656;52.074;4.758;2023-12-14T18:23:13;9.63;;;2.73;;
78372;SDS011;67656;52.074;4.758;2023-12-14T18:28:13;6.47;;;2.83;;
78372;SDS011;67656;52.074;4.758;2023-12-14T18:33:14;4.67;;;2.60;;
78372;SDS011;67656;52.074;4.758;2023-12-14T18:38:16;7.53;;;2.40;;
78372;SDS011;67656;52.074;4.758;2023-12-14T18:43:16;4.40;;;2.20;;
78372;SDS011;67656;52.074;4.758;2023-12-14T18:48:17;7.90;;;2.17;;
78372;SDS011;67656;52.074;4.758;2023-12-14T18:53:17;4.40;;;2.20;;
78372;SDS011;67656;52.074;4.758;2023-12-14T18:58:18;6.27;;;2.33;;
78372;SDS011;67656;52.074;4.758;2023-12-14T19:03:18;5.70;;;1.90;;
78372;SDS011;67656;52.074;4.758;2023-12-14T19:08:18;5.83;;;2.07;;
78372;SDS011;67656;52.074;4.758;2023-12-14T19:13:19;3.37;;;1.90;;
78372;SDS011;67656;52.074;4.758;2023-12-14T19:18:19;8.53;;;2.33;;
78372;SDS011;67656;52.074;4.758;2023-12-14T19:23:20;3.70;;;2.10;;
78372;SDS011;67656;52.074;4.758;2023-12-14T19:28:20;9.43;;;3.83;;
78372;SDS011;67656;52.074;4.758;2023-12-14T19:33:21;8.93;;;3.57;;
78372;SDS011;67656;52.074;4.758;2023-12-14T19:38:21;7.07;;;3.00;;
78372;SDS011;67656;52.074;4.758;2023-12-14T19:43:21;8.20;;;2.50;;
78372;SDS011;67656;52.074;4.758;2023-12-14T19:48:22;6.87;;;2.43;;
78372;SDS011;67656;52.074;4.758;2023-12-14T19:53:22;10.23;;;4.03;;
78372;SDS011;67656;52.074;4.758;2023-12-14T19:58:23;8.83;;;3.20;;
78372;SDS011;67656;52.074;4.758;2023-12-14T20:03:24;8.23;;;3.13;;
78372;SDS011;67656;52.074;4.758;2023-12-14T20:08:24;6.93;;;2.97;;
78372;SDS011;67656;52.074;4.758;2023-12-14T20:13:24;10.83;;;2.87;;
78372;SDS011;67656;52.074;4.758;2023-12-14T20:18:25;9.40;;;2.63;;
78372;SDS011;67656;52.074;4.758;2023-12-14T20:23:25;7.57;;;3.10;;
78372;SDS011;67656;52.074;4.758;2023-12-14T20:28:26;5.53;;;2.37;;
78372;SDS011;67656;52.074;4.758;2023-12-14T20:33:27;6.20;;;2.77;;
78372;SDS011;67656;52.074;4.758;2023-12-14T20:38:28;6.83;;;2.77;;
78372;SDS011;67656;52.074;4.758;2023-12-14T20:43:28;14.13;;;3.17;;
78372;SDS011;67656;52.074;4.758;2023-12-14T20:48:28;8.70;;;2.67;;
78372;SDS011;67656;52.074;4.758;2023-12-14T20:53:29;9.73;;;2.83;;
78372;SDS011;67656;52.074;4.758;2023-12-14T20:58:30;8.33;;;3.20;;
78372;SDS011;67656;52.074;4.758;2023-12-14T21:03:30;8.33;;;2.90;;
78372;SDS011;67656;52.074;4.758;2023-12-14T21:08:31;7.43;;;2.63;;
78372;SDS011;67656;52.074;4.758;2023-12-14T21:13:31;7.30;;;2.77;;
78372;SDS011;67656;52.074;4.758;2023-12-14T21:18:32;8.77;;;2.57;;
78372;SDS011;67656;52.074;4.758;2023-12-14T21:23:32;12.37;;;4.80;;
78372;SDS011;67656;52.074;4.758;2023-12-14T21:28:34;8.90;;;2.93;;
78372;SDS011;67656;52.074;4.758;2023-12-14T21:33:36;7.67;;;3.20;;
78372;SDS011;67656;52.074;4.758;2023-12-14T21:38:36;9.33;;;3.40;;
78372;SDS011;67656;52.074;4.758;2023-12-14T21:43:36;8.30;;;3.83;;
78372;SDS011;67656;52.074;4.758;2023-12-14T21:48:37;8.30;;;3.50;;
78372;SDS011;67656;52.074;4.758;2023-12-14T21:53:37;10.63;;;3.23;;
78372;SDS011;67656;52.074;4.758;2023-12-14T21:58:38;9.20;;;3.57;;
78372;SDS011;67656;52.074;4.758;2023-12-14T22:03:38;11.50;;;3.43;;
78372;SDS011;67656;52.074;4.758;2023-12-14T22:08:38;11.33;;;3.63;;
78372;SDS011;67656;52.074;4.758;2023-12-14T22:13:39;11.30;;;4.27;;
78372;SDS011;67656;52.074;4.758;2023-12-14T22:18:39;11.13;;;4.50;;
78372;SDS011;67656;52.074;4.758;2023-12-14T22:23:40;13.20;;;4.23;;
78372;SDS011;67656;52.074;4.758;2023-12-14T22:28:40;11.27;;;4.30;;
78372;SDS011;67656;52.074;4.758;2023-12-14T22:33:41;19.00;;;6.07;;
78372;SDS011;67656;52.074;4.758;2023-12-14T22:38:41;15.93;;;6.03;;
78372;SDS011;67656;52.074;4.758;2023-12-14T22:43:42;18.67;;;6.30;;
78372;SDS011;67656;52.074;4.758;2023-12-14T22:48:43;20.87;;;7.30;;
78372;SDS011;67656;52.074;4.758;2023-12-14T22:53:44;15.70;;;6.50;;
78372;SDS011;67656;52.074;4.758;2023-12-14T22:58:45;27.07;;;8.33;;
78372;SDS011;67656;52.074;4.758;2023-12-14T23:03:45;20.70;;;7.90;;
78372;SDS011;67656;52.074;4.758;2023-12-14T23:08:46;18.80;;;7.50;;
78372;SDS011;67656;52.074;4.758;2023-12-14T23:13:47;24.20;;;7.57;;
78372;SDS011;67656;52.074;4.758;2023-12-14T23:18:48;27.43;;;9.77;;
78372;SDS011;67656;52.074;4.758;2023-12-14T23:23:48;27.73;;;9.17;;
78372;SDS011;67656;52.074;4.758;2023-12-14T23:28:49;26.43;;;8.47;;
78372;SDS011;67656;52.074;4.758;2023-12-14T23:33:49;26.10;;;8.67;;
78372;SDS011;67656;52.074;4.758;2023-12-14T23:38:50;27.50;;;9.63;;
78372;SDS011;67656;52.074;4.758;2023-12-14T23:43:50;28.27;;;10.37;;
78372;SDS011;67656;52.074;4.758;2023-12-14T23:48:51;29.17;;;10.17;;
78372;SDS011;67656;52.074;4.758;2023-12-14T23:53:51;29.97;;;10.57;;
78372;SDS011;67656;52.074;4.758;2023-12-14T23:58:52;34.43;;;10.83;;
